DRZA/AJY METAR and TAF weather

Enter ICAO airport designator
Station Type Date Time Source
DRZA METAR 2021/03/02 13:00 UTC NOAA

DRZA 021300Z 11020KT CAVOK 32/M03 Q1013


Station Type Date Time Source
DRZA Decoded METAR 2021/03/02 13:00 UTC NOAA

Agadez, Niger (DRZA) 16-58N 007-59E 502M
Mar 02, 2021 - 08:00 AM EST / 2021.03.02 1300 UTC
Wind: from the ESE (110 degrees) at 23 MPH (20 KT):0
Visibility: greater than 7 mile(s):0
Temperature: 89 F (32 C)
Dew Point: 26 F (-3 C)
Relative Humidity: 10%
Pressure (altimeter): 29.91 in. Hg (1013 hPa)
ob: DRZA 021300Z 11020KT CAVOK 32/M03 Q1013
cycle: 13

Station Type Date Time Source
DRZA TAF 2021/03/02 12:57 UTC NOAA

TAF COR DRZA 021100Z 0212/0312 08015KT 6000 NSC
TEMPO 0212/0216 10025KT 3500 BLDU

Example: see airport list